createdAt,value
2018-09-02T00:00:38.434Z,62.50
2018-09-02T00:03:07.443Z,62.66
2018-09-02T00:05:36.344Z,62.88
2018-09-02T00:08:05.455Z,63.35
2018-09-02T00:10:34.504Z,63.45
2018-09-02T00:13:03.364Z,63.48
2018-09-02T00:15:32.614Z,63.30
2018-09-02T00:18:01.210Z,64.21
2018-09-02T00:20:30.349Z,64.41
2018-09-02T00:22:59.612Z,64.63
2018-09-02T00:25:28.334Z,64.27
2018-09-02T00:27:56.983Z,64.25
2018-09-02T00:30:25.996Z,63.57
2018-09-02T00:32:54.714Z,62.89
2018-09-02T00:35:23.472Z,62.83
2018-09-02T00:37:52.780Z,62.64
2018-09-02T00:40:21.534Z,62.63
2018-09-02T00:42:50.559Z,62.43
2018-09-02T00:45:19.619Z,63.96
2018-09-02T00:47:48.419Z,63.83
2018-09-02T00:50:17.208Z,63.39
2018-09-02T00:52:46.274Z,63.32
2018-09-02T00:55:14.994Z,62.71
2018-09-02T00:57:43.678Z,63.75
2018-09-02T01:00:12.684Z,63.14
2018-09-02T01:02:41.463Z,62.77
2018-09-02T01:05:10.479Z,62.74
2018-09-02T01:07:39.927Z,63.47
2018-09-02T01:10:09.159Z,64.37
2018-09-02T01:12:37.947Z,65.19
2018-09-02T01:15:07.327Z,65.26
2018-09-02T01:17:36.211Z,65.62
2018-09-02T01:20:05.338Z,65.95
2018-09-02T01:22:34.446Z,65.74
2018-09-02T01:25:03.250Z,65.49
2018-09-02T01:27:31.845Z,65.56
2018-09-02T01:30:00.968Z,65.35
2018-09-02T01:32:30.083Z,64.97
2018-09-02T01:34:58.910Z,64.71
2018-09-02T01:37:28.346Z,64.27
2018-09-02T01:39:57.155Z,64.00
2018-09-02T01:42:26.155Z,63.68
2018-09-02T01:44:55.228Z,63.96
2018-09-02T01:47:24.271Z,63.77
2018-09-02T01:49:53.243Z,63.96
2018-09-02T01:52:22.171Z,63.76
2018-09-02T01:54:50.902Z,64.72
2018-09-02T01:57:19.646Z,64.35
2018-09-02T01:59:48.748Z,64.10
2018-09-02T02:02:17.939Z,64.39
2018-09-02T02:04:46.932Z,64.72
2018-09-02T02:07:16.022Z,64.43
2018-09-02T02:09:44.917Z,65.24
2018-09-02T02:12:13.987Z,65.06
2018-09-02T02:14:43.051Z,65.08
2018-09-02T02:17:11.813Z,64.84
2018-09-02T02:19:40.543Z,65.55
2018-09-02T02:22:09.511Z,65.49
2018-09-02T02:24:44.691Z,66.20
2018-09-02T02:27:13.681Z,65.84
2018-09-02T02:29:42.570Z,65.55
2018-09-02T02:32:11.494Z,66.11
2018-09-02T02:34:40.612Z,66.99
2018-09-02T02:37:09.687Z,67.14
2018-09-02T02:39:38.373Z,67.65
2018-09-02T02:42:07.783Z,67.93
2018-09-02T02:44:36.870Z,68.47
2018-09-02T02:47:05.913Z,67.89
2018-09-02T02:49:35.290Z,68.16
2018-09-02T02:52:04.049Z,68.59
2018-09-02T02:54:32.822Z,68.05
2018-09-02T02:57:01.668Z,68.27
2018-09-02T02:59:30.464Z,68.28
2018-09-02T03:01:59.510Z,68.16
2018-09-02T03:04:28.343Z,68.50
2018-09-02T03:06:57.306Z,68.82
2018-09-02T03:09:26.170Z,68.06
2018-09-02T03:11:55.500Z,68.30
2018-09-02T03:14:24.487Z,69.02
2018-09-02T03:16:53.589Z,69.29
2018-09-02T03:19:22.384Z,69.34
2018-09-02T03:21:51.175Z,69.05
2018-09-02T03:24:20.438Z,69.77
2018-09-02T03:26:49.069Z,70.21
2018-09-02T03:29:18.047Z,70.52
2018-09-02T03:31:46.883Z,69.90
2018-09-02T03:34:15.807Z,69.54
2018-09-02T03:36:44.825Z,69.75
2018-09-02T03:39:14.105Z,69.58
2018-09-02T03:41:43.174Z,68.73
2018-09-02T03:44:11.908Z,68.29
2018-09-02T03:46:41.127Z,67.48
2018-09-02T03:49:09.906Z,67.81
2018-09-02T03:51:38.877Z,68.72
2018-09-02T03:54:07.599Z,68.77
2018-09-02T03:56:36.402Z,68.40
2018-09-02T03:59:05.328Z,67.56
2018-09-02T04:01:34.581Z,67.39
2018-09-02T04:04:03.714Z,67.51
2018-09-02T04:06:32.650Z,68.12
2018-09-02T04:09:01.975Z,68.10
2018-09-02T04:11:31.003Z,68.06
2018-09-02T04:13:59.888Z,69.44
2018-09-02T04:16:28.902Z,68.73
2018-09-02T04:18:58.479Z,68.48
2018-09-02T04:21:27.618Z,67.93
2018-09-02T04:23:56.414Z,67.81
2018-09-02T04:26:25.095Z,68.76
2018-09-02T04:28:54.114Z,68.21
2018-09-02T04:31:23.319Z,68.59
2018-09-02T04:33:52.155Z,69.05
2018-09-02T04:36:21.666Z,68.43
2018-09-02T04:38:50.511Z,68.00
2018-09-02T04:41:19.667Z,67.57
2018-09-02T04:43:49.035Z,67.38
2018-09-02T04:46:18.202Z,67.62
2018-09-02T04:48:47.106Z,65.41
2018-09-02T04:51:15.775Z,65.29
2018-09-02T04:53:44.708Z,65.29
2018-09-02T04:56:13.551Z,64.67
2018-09-02T04:58:42.338Z,64.55
2018-09-02T05:01:11.596Z,65.22
2018-09-02T05:03:40.506Z,64.73
2018-09-02T05:06:09.220Z,64.58
2018-09-02T05:08:38.264Z,64.34
2018-09-02T05:11:07.141Z,63.27
2018-09-02T05:13:35.944Z,63.25
2018-09-02T05:16:05.111Z,61.68
2018-09-02T05:18:33.732Z,62.01
2018-09-02T05:21:03.001Z,61.72
2018-09-02T05:23:32.201Z,61.46
2018-09-02T05:26:00.965Z,60.90
2018-09-02T05:28:29.958Z,60.44
2018-09-02T05:30:59.220Z,60.95
2018-09-02T05:33:28.161Z,60.35
2018-09-02T05:35:57.200Z,59.55
2018-09-02T05:38:26.467Z,59.62
2018-09-02T05:40:55.447Z,59.02
2018-09-02T05:43:24.159Z,58.73
2018-09-02T05:45:53.246Z,58.51
2018-09-02T05:48:22.214Z,57.83
2018-09-02T05:50:50.858Z,56.54
2018-09-02T05:53:19.882Z,57.17
2018-09-02T05:55:48.652Z,56.46
2018-09-02T05:58:17.771Z,56.68
2018-09-02T06:00:47.119Z,55.44
2018-09-02T06:03:16.167Z,54.90
2018-09-02T06:05:45.076Z,56.37
2018-09-02T06:08:13.911Z,55.16
2018-09-02T06:10:42.918Z,54.60
2018-09-02T06:13:14.279Z,54.86
2018-09-02T06:15:43.338Z,53.88
2018-09-02T06:18:12.842Z,52.73
2018-09-02T06:20:41.591Z,52.90
2018-09-02T06:23:10.486Z,52.99
2018-09-02T06:25:39.971Z,52.61
2018-09-02T06:28:08.893Z,51.90
2018-09-02T06:30:37.938Z,50.88
2018-09-02T06:33:07.103Z,51.74
2018-09-02T06:35:35.845Z,51.64
2018-09-02T06:38:04.961Z,51.66
2018-09-02T06:40:34.191Z,50.27
2018-09-02T06:43:02.955Z,48.74
2018-09-02T06:45:32.001Z,49.28
2018-09-02T06:48:01.151Z,48.75
2018-09-02T06:50:30.034Z,48.61
2018-09-02T06:52:58.764Z,47.92
2018-09-02T06:55:27.954Z,46.95
2018-09-02T06:57:57.037Z,47.74
2018-09-02T07:00:25.994Z,46.72
2018-09-02T07:02:55.053Z,46.11
2018-09-02T07:05:23.754Z,45.70
2018-09-02T07:07:52.696Z,46.60
2018-09-02T07:10:21.820Z,45.46
2018-09-02T07:12:50.929Z,44.07
2018-09-02T07:15:19.841Z,44.20
2018-09-02T07:17:49.077Z,44.45
2018-09-02T07:20:17.838Z,45.06
2018-09-02T07:22:46.563Z,45.08
2018-09-02T07:25:15.713Z,44.28
2018-09-02T07:27:44.854Z,43.97
2018-09-02T07:30:13.798Z,43.67
2018-09-02T07:32:42.851Z,43.69
2018-09-02T07:35:12.246Z,43.66
2018-09-02T07:37:41.035Z,43.08
2018-09-02T07:40:10.206Z,41.77
2018-09-02T07:42:39.202Z,41.89
2018-09-02T07:45:09.620Z,40.90
2018-09-02T07:47:38.304Z,40.84
2018-09-02T07:50:07.284Z,40.61
2018-09-02T07:52:36.032Z,40.60
2018-09-02T07:55:05.425Z,40.63
2018-09-02T07:57:34.843Z,39.85
2018-09-02T08:00:03.755Z,39.82
2018-09-02T08:02:32.786Z,39.32
2018-09-02T08:05:02.010Z,38.70
2018-09-02T08:07:31.332Z,38.97
2018-09-02T08:10:00.425Z,39.38
2018-09-02T08:12:29.722Z,39.28
2018-09-02T08:14:58.623Z,39.04
2018-09-02T08:17:27.431Z,38.85
2018-09-02T08:19:56.200Z,38.39
2018-09-02T08:22:24.974Z,38.60
2018-09-02T08:24:54.344Z,37.54
2018-09-02T08:27:23.166Z,37.41
2018-09-02T08:29:52.026Z,37.02
2018-09-02T08:32:21.580Z,37.29
2018-09-02T08:34:50.847Z,35.52
2018-09-02T08:37:19.679Z,35.77
2018-09-02T08:39:49.079Z,35.84
2018-09-02T08:42:17.813Z,35.82
2018-09-02T08:44:46.760Z,35.36
2018-09-02T08:47:16.186Z,35.84
2018-09-02T08:49:44.754Z,34.61
2018-09-02T08:52:13.780Z,33.81
2018-09-02T08:54:42.706Z,33.90
2018-09-02T08:57:11.712Z,33.22
2018-09-02T08:59:40.398Z,33.62
2018-09-02T09:02:09.493Z,32.98
2018-09-02T09:04:38.186Z,32.56
2018-09-02T09:07:07.118Z,31.61
2018-09-02T09:09:36.500Z,31.36
2018-09-02T09:12:05.910Z,31.16
2018-09-02T09:14:34.913Z,30.09
2018-09-02T09:17:03.825Z,29.41
2018-09-02T09:19:32.407Z,29.19
2018-09-02T09:22:01.208Z,28.07
2018-09-02T09:24:30.067Z,28.28
2018-09-02T09:26:58.816Z,27.24
2018-09-02T09:29:27.854Z,26.75
2018-09-02T09:31:57.158Z,26.68
2018-09-02T09:34:26.635Z,26.33
2018-09-02T09:36:55.602Z,26.04
2018-09-02T09:39:24.405Z,26.09
2018-09-02T09:41:53.618Z,25.20
2018-09-02T09:44:22.547Z,25.48
2018-09-02T09:46:51.694Z,25.24
2018-09-02T09:49:20.835Z,25.03
2018-09-02T09:51:49.876Z,24.78
2018-09-02T09:54:18.681Z,23.44
2018-09-02T09:56:47.976Z,23.37
2018-09-02T09:59:17.282Z,22.90
2018-09-02T10:01:46.278Z,22.69
2018-09-02T10:04:15.595Z,21.96
2018-09-02T10:06:44.366Z,20.92
2018-09-02T10:09:15.007Z,20.23
2018-09-02T10:11:44.787Z,19.22
2018-09-02T10:14:13.666Z,18.88
2018-09-02T10:16:42.410Z,19.83
2018-09-02T10:19:11.414Z,20.25
2018-09-02T10:21:40.174Z,18.92
2018-09-02T10:24:09.182Z,17.84
2018-09-02T10:26:38.469Z,17.74
2018-09-02T10:29:07.473Z,17.20
2018-09-02T10:31:36.498Z,17.89
2018-09-02T10:34:05.925Z,17.63
2018-09-02T10:36:35.196Z,16.87
2018-09-02T10:39:05.067Z,16.89
2018-09-02T10:41:34.399Z,17.31
2018-09-02T10:44:03.249Z,16.93
2018-09-02T10:46:32.066Z,16.64
2018-09-02T10:49:00.784Z,16.72
2018-09-02T10:51:29.774Z,16.20
2018-09-02T10:53:58.847Z,16.53
2018-09-02T10:56:27.784Z,17.58
2018-09-02T10:58:56.927Z,17.08
2018-09-02T11:01:25.793Z,16.92
2018-09-02T11:03:54.703Z,15.95
2018-09-02T11:06:23.393Z,15.70
2018-09-02T11:08:52.608Z,15.75
2018-09-02T11:11:22.005Z,15.70
2018-09-02T11:13:51.465Z,14.67
2018-09-02T11:16:20.437Z,14.03
2018-09-02T11:18:49.177Z,13.42
2018-09-02T11:21:17.929Z,14.03
2018-09-02T11:23:50.171Z,14.49
2018-09-02T11:26:19.457Z,14.69
2018-09-02T11:28:48.383Z,14.63
2018-09-02T11:31:17.697Z,14.01
2018-09-02T11:33:46.573Z,13.87
2018-09-02T11:36:15.780Z,13.78
2018-09-02T11:38:45.460Z,14.25
2018-09-02T11:41:14.640Z,15.28
2018-09-02T11:43:43.690Z,14.96
2018-09-02T11:46:12.743Z,14.92
2018-09-02T11:48:41.472Z,15.85
2018-09-02T11:51:10.414Z,14.73
2018-09-02T11:53:39.635Z,15.71
2018-09-02T11:56:08.709Z,15.01
2018-09-02T11:58:37.567Z,15.07
2018-09-02T12:01:06.813Z,15.06
2018-09-02T12:03:35.939Z,16.00
2018-09-02T12:06:05.035Z,16.06
2018-09-02T12:08:34.137Z,15.58
2018-09-02T12:11:03.091Z,16.29
2018-09-02T12:13:31.870Z,15.19
2018-09-02T12:16:00.898Z,15.40
2018-09-02T12:18:29.931Z,15.28
2018-09-02T12:20:59.093Z,15.59
2018-09-02T12:23:28.477Z,14.39
2018-09-02T12:25:57.478Z,14.97
2018-09-02T12:28:26.761Z,14.58
2018-09-02T12:30:55.983Z,14.15
2018-09-02T12:33:24.714Z,13.48
2018-09-02T12:35:53.895Z,14.87
2018-09-02T12:38:23.162Z,14.06
2018-09-02T12:40:52.086Z,13.77
2018-09-02T12:43:20.963Z,14.03
2018-09-02T12:45:50.269Z,14.04
2018-09-02T12:48:19.553Z,13.93
2018-09-02T12:50:48.313Z,12.83
2018-09-02T12:53:17.235Z,13.07
2018-09-02T12:55:46.205Z,13.09
2018-09-02T12:58:15.422Z,12.51
2018-09-02T13:00:44.611Z,13.00
2018-09-02T13:03:13.397Z,13.33
2018-09-02T13:05:42.295Z,12.88
2018-09-02T13:08:11.320Z,13.05
2018-09-02T13:10:40.262Z,13.07
2018-09-02T13:13:09.003Z,12.02
2018-09-02T13:15:38.284Z,12.55
2018-09-02T13:18:07.014Z,11.83
2018-09-02T13:20:36.031Z,11.81
2018-09-02T13:23:05.358Z,12.79
2018-09-02T13:25:34.314Z,12.61
2018-09-02T13:28:03.124Z,12.53
2018-09-02T13:30:32.352Z,12.88
2018-09-02T13:33:01.153Z,12.64
2018-09-02T13:35:30.098Z,12.36
2018-09-02T13:40:39.876Z,12.13
2018-09-02T13:43:08.680Z,12.72
2018-09-02T13:45:37.384Z,11.86
2018-09-02T13:48:06.390Z,12.49
2018-09-02T13:50:35.847Z,12.93
2018-09-02T13:53:04.848Z,12.81
2018-09-02T13:55:33.619Z,12.25
2018-09-02T13:58:02.663Z,12.24
2018-09-02T14:00:31.363Z,11.65
2018-09-02T14:03:00.423Z,11.92
2018-09-02T14:05:29.135Z,11.44
2018-09-02T14:07:58.338Z,11.56
2018-09-02T14:10:27.030Z,11.34
2018-09-02T14:12:55.966Z,10.74
2018-09-02T14:15:24.758Z,10.67
2018-09-02T14:17:53.814Z,11.25
2018-09-02T14:20:23.289Z,10.26
2018-09-02T14:22:52.523Z,10.23
2018-09-02T14:25:21.441Z,9.99
2018-09-02T14:27:50.998Z,9.57
2018-09-02T14:30:20.084Z,9.96
2018-09-02T14:32:49.147Z,10.11
2018-09-02T14:35:18.386Z,10.60
2018-09-02T14:37:47.204Z,11.42
2018-09-02T14:40:15.916Z,11.11
2018-09-02T14:42:45.141Z,10.56
2018-09-02T14:45:13.946Z,11.03
2018-09-02T14:47:42.922Z,10.54
2018-09-02T14:50:12.223Z,10.33
2018-09-02T14:52:41.299Z,10.09
2018-09-02T14:55:10.594Z,10.39
2018-09-02T14:57:40.031Z,9.94
2018-09-02T15:00:08.878Z,10.09
2018-09-02T15:02:37.743Z,10.15
2018-09-02T15:05:06.815Z,10.04
2018-09-02T15:07:35.522Z,9.92
2018-09-02T15:10:04.360Z,9.94
2018-09-02T15:12:33.492Z,10.25
2018-09-02T15:15:02.471Z,9.76
2018-09-02T15:17:31.440Z,10.74
2018-09-02T15:20:00.799Z,10.44
2018-09-02T15:22:29.750Z,10.70
2018-09-02T15:24:58.592Z,10.93
2018-09-02T15:27:27.977Z,11.21
2018-09-02T15:29:56.953Z,11.06
2018-09-02T15:32:25.726Z,10.56
2018-09-02T15:34:54.659Z,10.81
2018-09-02T15:37:23.626Z,10.83
2018-09-02T15:39:52.323Z,11.09
2018-09-02T15:42:21.530Z,11.36
2018-09-02T15:44:50.362Z,11.17
2018-09-02T15:47:19.296Z,10.62
2018-09-02T15:49:48.503Z,10.85
2018-09-02T15:52:17.198Z,11.13
2018-09-02T15:54:45.852Z,10.81
2018-09-02T15:57:15.121Z,11.46
2018-09-02T15:59:43.846Z,11.74
2018-09-02T16:02:12.938Z,12.04
2018-09-02T16:04:42.470Z,11.20
2018-09-02T16:07:11.513Z,10.92
2018-09-02T16:09:40.267Z,11.69
2018-09-02T16:12:09.483Z,11.70
2018-09-02T16:14:38.500Z,11.66
2018-09-02T16:17:07.451Z,11.47
2018-09-02T16:19:36.462Z,11.67
2018-09-02T16:22:05.562Z,12.03
2018-09-02T16:24:34.733Z,12.06
2018-09-02T16:27:03.821Z,12.72
2018-09-02T16:29:32.839Z,12.68
2018-09-02T16:32:01.678Z,13.41
2018-09-02T16:34:30.791Z,13.77
2018-09-02T16:36:59.687Z,14.46
2018-09-02T16:39:28.334Z,14.77
2018-09-02T16:41:57.143Z,14.60
2018-09-02T16:44:26.302Z,15.40
2018-09-02T16:46:55.286Z,16.44
2018-09-02T16:49:24.352Z,16.90
2018-09-02T16:51:53.227Z,16.73
2018-09-02T16:54:22.063Z,18.28
2018-09-02T16:56:51.243Z,18.64
2018-09-02T16:59:20.247Z,18.73
2018-09-02T17:01:49.054Z,20.02
2018-09-02T17:04:18.755Z,20.50
2018-09-02T17:06:47.709Z,20.96
2018-09-02T17:09:16.531Z,21.90
2018-09-02T17:11:45.361Z,21.78
2018-09-02T17:14:13.927Z,23.19
2018-09-02T17:16:43.263Z,23.55
2018-09-02T17:19:16.735Z,23.92
2018-09-02T17:21:45.732Z,23.85
2018-09-02T17:24:14.779Z,24.46
2018-09-02T17:26:43.590Z,25.36
2018-09-02T17:29:12.652Z,25.17
2018-09-02T17:31:41.395Z,26.18
2018-09-02T17:34:10.671Z,26.28
2018-09-02T17:36:39.495Z,27.04
2018-09-02T17:39:10.178Z,27.02
2018-09-02T17:41:38.964Z,26.86
2018-09-02T17:44:07.967Z,27.96
2018-09-02T17:46:37.121Z,27.84
2018-09-02T17:49:06.327Z,27.74
2018-09-02T17:51:35.475Z,27.32
2018-09-02T17:54:04.365Z,27.89
2018-09-02T17:56:33.580Z,27.28
2018-09-02T17:59:02.367Z,28.29
2018-09-02T18:01:31.566Z,28.50
2018-09-02T18:04:00.294Z,28.61
2018-09-02T18:06:28.954Z,28.39
2018-09-02T18:08:57.622Z,29.27
2018-09-02T18:11:26.210Z,29.67
2018-09-02T18:13:55.196Z,29.48
2018-09-02T18:16:24.342Z,29.15
2018-09-02T18:18:53.268Z,29.44
2018-09-02T18:21:21.978Z,29.88
2018-09-02T18:23:50.864Z,30.00
2018-09-02T18:26:20.005Z,29.99
2018-09-02T18:28:49.671Z,29.94
2018-09-02T18:31:18.735Z,30.27
2018-09-02T18:33:47.532Z,30.87
2018-09-02T18:36:16.391Z,30.97
2018-09-02T18:38:45.099Z,31.53
2018-09-02T18:41:13.899Z,31.33
2018-09-02T18:43:42.844Z,31.73
2018-09-02T18:46:12.394Z,31.12
2018-09-02T18:48:41.303Z,31.71
2018-09-02T18:51:09.941Z,32.01
2018-09-02T18:53:38.620Z,31.61
2018-09-02T18:56:07.464Z,32.37
2018-09-02T18:58:36.698Z,32.52
2018-09-02T19:01:05.723Z,32.42
2018-09-02T19:03:34.733Z,32.19
2018-09-02T19:06:03.602Z,32.91
2018-09-02T19:08:32.543Z,32.62
2018-09-02T19:11:01.420Z,33.13
2018-09-02T19:13:30.109Z,32.87
2018-09-02T19:15:58.937Z,33.33
2018-09-02T19:18:27.870Z,32.98
2018-09-02T19:20:56.681Z,33.81
2018-09-02T19:23:25.595Z,33.40
2018-09-02T19:25:54.714Z,34.09
2018-09-02T19:28:23.445Z,34.17
2018-09-02T19:30:52.220Z,33.98
2018-09-02T19:33:21.055Z,33.62
2018-09-02T19:35:49.727Z,33.63
2018-09-02T19:38:18.327Z,33.57
2018-09-02T19:40:47.348Z,33.90
2018-09-02T19:43:16.372Z,33.84
2018-09-02T19:45:45.130Z,34.54
2018-09-02T19:48:14.231Z,33.78
2018-09-02T19:50:43.383Z,33.99
2018-09-02T19:53:12.711Z,33.68
2018-09-02T19:55:41.680Z,34.13
2018-09-02T19:58:10.598Z,34.24
2018-09-02T20:00:39.541Z,33.66
2018-09-02T20:03:08.425Z,34.16
2018-09-02T20:05:37.082Z,33.23
2018-09-02T20:08:05.848Z,33.68
2018-09-02T20:10:35.070Z,33.84
2018-09-02T20:13:03.998Z,34.04
2018-09-02T20:15:33.241Z,33.26
2018-09-02T20:18:02.402Z,33.65
2018-09-02T20:20:31.320Z,33.22
2018-09-02T20:23:00.436Z,33.15
2018-09-02T20:25:29.447Z,33.64
2018-09-02T20:27:58.322Z,32.77
2018-09-02T20:30:27.247Z,32.98
2018-09-02T20:32:56.131Z,33.26
2018-09-02T20:35:24.795Z,33.45
2018-09-02T20:37:53.386Z,33.81
2018-09-02T20:40:22.538Z,34.10
2018-09-02T20:42:51.552Z,33.85
2018-09-02T20:45:20.520Z,33.94
2018-09-02T20:47:49.636Z,34.18
2018-09-02T20:50:18.640Z,34.46
2018-09-02T20:52:47.491Z,34.94
2018-09-02T20:55:16.322Z,34.68
2018-09-02T20:57:45.266Z,34.63
2018-09-02T21:00:14.430Z,35.33
2018-09-02T21:02:43.103Z,35.16
2018-09-02T21:05:11.923Z,35.72
2018-09-02T21:07:40.581Z,35.75
2018-09-02T21:10:09.344Z,35.27
2018-09-02T21:12:39.273Z,35.43
2018-09-02T21:15:08.035Z,35.92
2018-09-02T21:17:36.979Z,35.90
2018-09-02T21:20:06.108Z,36.33
2018-09-02T21:22:35.027Z,35.94
2018-09-02T21:25:04.273Z,35.97
2018-09-02T21:27:33.335Z,36.15
2018-09-02T21:30:02.458Z,36.17
2018-09-02T21:32:31.187Z,36.12
2018-09-02T21:34:59.943Z,36.35
2018-09-02T21:37:28.671Z,36.75
2018-09-02T21:39:57.411Z,36.61
2018-09-02T21:42:26.514Z,36.52
2018-09-02T21:44:55.719Z,36.44
2018-09-02T21:47:24.340Z,37.08
2018-09-02T21:49:53.422Z,37.60
2018-09-02T21:52:22.240Z,37.56
2018-09-02T21:54:51.071Z,37.77
2018-09-02T21:57:19.921Z,37.89
2018-09-02T21:59:49.012Z,37.42
2018-09-02T22:02:17.685Z,38.02
2018-09-02T22:04:46.438Z,37.42
2018-09-02T22:07:15.148Z,37.62
2018-09-02T22:09:43.963Z,38.91
2018-09-02T22:12:12.800Z,39.38
2018-09-02T22:14:41.643Z,39.62
2018-09-02T22:17:10.591Z,39.98
2018-09-02T22:19:39.340Z,40.37
2018-09-02T22:22:08.146Z,40.86
2018-09-02T22:24:36.915Z,40.25
2018-09-02T22:27:05.735Z,40.78
2018-09-02T22:29:34.677Z,41.31
2018-09-02T22:32:03.569Z,41.77
2018-09-02T22:34:32.342Z,43.27
2018-09-02T22:37:01.072Z,43.71
2018-09-02T22:39:30.003Z,43.93
2018-09-02T22:41:59.188Z,44.08
2018-09-02T22:44:27.854Z,44.02
2018-09-02T22:46:56.893Z,43.33
2018-09-02T22:49:25.879Z,44.69
2018-09-02T22:51:54.870Z,44.10
2018-09-02T22:54:23.970Z,44.99
2018-09-02T22:56:53.054Z,46.20
2018-09-02T22:59:22.217Z,46.80
2018-09-02T23:01:50.941Z,46.08
2018-09-02T23:04:19.668Z,46.56
2018-09-02T23:06:48.560Z,46.76
2018-09-02T23:09:17.375Z,46.75
2018-09-02T23:11:46.271Z,47.27
2018-09-02T23:14:15.237Z,48.09
2018-09-02T23:16:44.124Z,49.40
2018-09-02T23:19:12.988Z,49.08
2018-09-02T23:21:41.875Z,49.62
2018-09-02T23:24:10.742Z,50.14
2018-09-02T23:26:39.516Z,50.28
2018-09-02T23:29:08.493Z,49.91
2018-09-02T23:31:37.310Z,49.84
2018-09-02T23:34:06.295Z,50.29
2018-09-02T23:36:35.265Z,51.13
2018-09-02T23:39:05.352Z,51.20
2018-09-02T23:41:34.393Z,51.60
2018-09-02T23:44:03.615Z,52.27
2018-09-02T23:46:32.419Z,52.40
2018-09-02T23:49:01.422Z,53.16
2018-09-02T23:51:30.278Z,53.08
2018-09-02T23:53:59.212Z,53.56
2018-09-02T23:56:28.182Z,53.51
2018-09-02T23:58:57.295Z,54.03
